createdAt,value
2019-02-19T00:00:00.272Z,92.60
2019-02-19T00:02:29.755Z,92.70
2019-02-19T00:05:00.302Z,92.70
2019-02-19T00:07:29.608Z,92.60
2019-02-19T00:09:58.966Z,92.60
2019-02-19T00:12:28.290Z,92.70
2019-02-19T00:14:57.663Z,92.60
2019-02-19T00:17:26.990Z,92.60
2019-02-19T00:19:56.327Z,92.60
2019-02-19T00:22:25.676Z,92.60
2019-02-19T00:24:54.980Z,92.60
2019-02-19T00:27:24.361Z,92.60
2019-02-19T00:29:53.693Z,92.70
2019-02-19T00:32:23.054Z,92.70
2019-02-19T00:34:52.455Z,92.70
2019-02-19T00:37:22.234Z,92.80
2019-02-19T00:39:51.603Z,92.80
2019-02-19T00:42:20.967Z,92.70
2019-02-19T00:44:50.267Z,92.90
2019-02-19T00:47:19.634Z,92.80
2019-02-19T00:49:48.930Z,92.90
2019-02-19T00:52:18.250Z,92.90
2019-02-19T00:54:47.551Z,93.00
2019-02-19T00:57:17.167Z,92.90
2019-02-19T00:59:46.479Z,92.80
2019-02-19T01:02:15.792Z,92.60
2019-02-19T01:04:45.194Z,92.80
2019-02-19T01:07:14.552Z,92.80
2019-02-19T01:09:43.986Z,93.00
2019-02-19T01:12:13.317Z,93.00
2019-02-19T01:14:42.664Z,92.90
2019-02-19T01:17:12.081Z,92.90
2019-02-19T01:19:41.416Z,93.00
2019-02-19T01:22:10.749Z,93.00
2019-02-19T01:24:40.158Z,93.00
2019-02-19T01:27:09.830Z,93.00
2019-02-19T01:29:39.131Z,93.00
2019-02-19T01:32:08.496Z,93.00
2019-02-19T01:34:37.907Z,93.10
2019-02-19T01:37:07.277Z,93.20
2019-02-19T01:39:36.598Z,93.20
2019-02-19T01:42:05.903Z,93.10
2019-02-19T01:44:35.234Z,93.30
2019-02-19T01:47:04.587Z,93.10
2019-02-19T01:49:33.883Z,93.10
2019-02-19T01:52:05.078Z,93.00
2019-02-19T01:54:34.423Z,93.00
2019-02-19T01:57:03.734Z,93.00
2019-02-19T01:59:33.362Z,93.10
2019-02-19T02:02:02.759Z,93.20
2019-02-19T02:04:31.876Z,93.10
2019-02-19T02:07:04.541Z,93.10
2019-02-19T02:09:33.896Z,93.00
2019-02-19T02:12:03.146Z,93.40
2019-02-19T02:14:32.230Z,93.10
2019-02-19T02:17:01.439Z,93.00
2019-02-19T02:19:30.497Z,93.10
2019-02-19T02:21:59.564Z,93.10
2019-02-19T02:24:28.806Z,93.00
2019-02-19T02:26:57.887Z,92.90
2019-02-19T02:29:26.937Z,92.80
2019-02-19T02:31:56.107Z,92.90
2019-02-19T02:34:25.185Z,92.80
2019-02-19T02:36:54.270Z,92.80
2019-02-19T02:39:23.317Z,92.80
2019-02-19T02:41:52.370Z,92.70
2019-02-19T02:44:21.347Z,92.90
2019-02-19T02:46:50.428Z,92.90
2019-02-19T02:49:19.549Z,92.90
2019-02-19T02:51:48.624Z,92.80
2019-02-19T02:54:17.706Z,92.80
2019-02-19T02:56:46.772Z,92.80
2019-02-19T02:59:15.820Z,92.70
2019-02-19T03:01:44.847Z,92.70
2019-02-19T03:04:14.230Z,92.80
2019-02-19T03:07:14.627Z,92.80
2019-02-19T03:09:43.750Z,92.80
2019-02-19T03:12:12.808Z,93.10
2019-02-19T03:14:41.853Z,92.90
2019-02-19T03:17:10.913Z,92.90
2019-02-19T03:19:39.951Z,92.90
2019-02-19T03:22:08.997Z,93.00
2019-02-19T03:24:38.038Z,93.10
2019-02-19T03:27:07.090Z,93.00
2019-02-19T03:29:36.166Z,92.90
2019-02-19T03:32:05.219Z,93.20
2019-02-19T03:34:34.266Z,92.90
2019-02-19T03:37:03.322Z,92.80
2019-02-19T03:39:32.442Z,92.80
2019-02-19T03:42:01.511Z,92.80
2019-02-19T03:44:30.572Z,92.90
2019-02-19T03:46:59.623Z,92.80
2019-02-19T03:49:28.662Z,92.80
2019-02-19T03:51:57.725Z,92.80
2019-02-19T03:54:26.763Z,92.80
2019-02-19T03:56:56.261Z,92.70
2019-02-19T03:59:25.305Z,92.70
2019-02-19T04:01:54.369Z,92.70
2019-02-19T04:04:23.430Z,92.80
2019-02-19T04:06:52.494Z,92.70
2019-02-19T04:09:21.558Z,92.70
2019-02-19T04:11:50.741Z,92.70
2019-02-19T04:14:19.868Z,92.70
2019-02-19T04:16:49.020Z,92.70
2019-02-19T04:19:18.088Z,92.70
2019-02-19T04:21:47.438Z,92.80
2019-02-19T04:24:16.511Z,92.90
2019-02-19T04:26:45.557Z,93.00
2019-02-19T04:29:14.618Z,93.00
2019-02-19T04:31:43.597Z,92.90
2019-02-19T04:34:12.631Z,92.90
2019-02-19T04:36:41.734Z,93.10
2019-02-19T04:39:10.787Z,93.10
2019-02-19T04:41:40.197Z,93.20
2019-02-19T04:44:09.265Z,93.20
2019-02-19T04:46:38.359Z,93.10
2019-02-19T04:49:07.420Z,93.10
2019-02-19T04:51:36.450Z,93.20
2019-02-19T04:54:05.513Z,93.30
2019-02-19T04:56:34.584Z,93.40
2019-02-19T04:59:03.618Z,93.20
2019-02-19T05:01:32.875Z,93.10
2019-02-19T05:04:01.937Z,93.20
2019-02-19T05:06:30.971Z,93.10
2019-02-19T05:09:00.034Z,93.20
2019-02-19T05:11:29.033Z,93.40
2019-02-19T05:13:58.083Z,93.40
2019-02-19T05:16:27.162Z,93.40
2019-02-19T05:18:56.154Z,93.50
2019-02-19T05:21:25.218Z,93.40
2019-02-19T05:23:54.241Z,93.50
2019-02-19T05:26:23.299Z,93.60
2019-02-19T05:28:52.396Z,93.60
2019-02-19T05:31:21.429Z,93.60
2019-02-19T05:33:50.486Z,93.60
2019-02-19T05:36:19.626Z,94.00
2019-02-19T05:38:48.692Z,93.80
2019-02-19T05:41:17.754Z,93.90
2019-02-19T05:43:46.825Z,93.80
2019-02-19T05:46:15.873Z,93.80
2019-02-19T05:48:45.244Z,93.90
2019-02-19T05:51:14.340Z,93.80
2019-02-19T05:53:44.887Z,93.70
2019-02-19T05:56:14.133Z,93.80
2019-02-19T05:58:43.212Z,93.80
2019-02-19T06:01:12.298Z,93.90
2019-02-19T06:03:41.335Z,94.00
2019-02-19T06:06:10.397Z,93.80
2019-02-19T06:08:39.470Z,93.70
2019-02-19T06:11:08.537Z,93.60
2019-02-19T06:13:37.642Z,94.20
2019-02-19T06:16:06.683Z,94.10
2019-02-19T06:18:35.754Z,94.00
2019-02-19T06:21:04.814Z,93.60
2019-02-19T06:23:33.892Z,93.90
2019-02-19T06:26:02.957Z,94.00
2019-02-19T06:28:32.017Z,93.80
2019-02-19T06:31:01.081Z,93.90
2019-02-19T06:33:30.162Z,93.80
2019-02-19T06:35:59.209Z,93.80
2019-02-19T06:38:28.354Z,93.80
2019-02-19T06:40:57.392Z,93.70
2019-02-19T06:43:26.487Z,93.70
2019-02-19T06:45:55.529Z,93.80
2019-02-19T06:48:24.506Z,93.90
2019-02-19T06:50:53.562Z,93.80
2019-02-19T06:53:22.650Z,93.80
2019-02-19T06:55:51.821Z,93.70
2019-02-19T06:58:20.861Z,93.60
2019-02-19T07:00:49.862Z,93.60
2019-02-19T07:03:24.133Z,93.60
2019-02-19T07:05:53.218Z,93.60
2019-02-19T07:08:22.291Z,93.60
2019-02-19T07:10:51.337Z,93.60
2019-02-19T07:13:20.385Z,93.50
2019-02-19T07:15:49.546Z,93.50
2019-02-19T07:18:18.625Z,93.70
2019-02-19T07:20:47.713Z,93.60
2019-02-19T07:23:16.749Z,93.50
2019-02-19T07:25:45.785Z,93.40
2019-02-19T07:28:15.095Z,93.20
2019-02-19T07:30:44.493Z,93.30
2019-02-19T07:33:13.525Z,93.20
2019-02-19T07:35:42.590Z,93.10
2019-02-19T07:38:11.699Z,93.20
2019-02-19T07:40:40.777Z,93.20
2019-02-19T07:43:09.870Z,93.20
2019-02-19T07:45:39.142Z,93.10
2019-02-19T07:48:08.195Z,93.10
2019-02-19T07:50:37.265Z,93.20
2019-02-19T07:53:06.390Z,93.00
2019-02-19T07:55:35.521Z,93.10
2019-02-19T07:58:04.610Z,93.10
2019-02-19T08:00:33.735Z,93.10
2019-02-19T08:03:02.833Z,93.20
2019-02-19T08:05:31.933Z,93.00
2019-02-19T08:08:00.994Z,93.10
2019-02-19T08:10:30.046Z,93.10
2019-02-19T08:12:59.125Z,93.00
2019-02-19T08:15:28.173Z,93.00
2019-02-19T08:17:57.273Z,93.30
2019-02-19T08:20:26.252Z,92.90
2019-02-19T08:22:55.314Z,92.90
2019-02-19T08:25:24.401Z,92.90
2019-02-19T08:27:53.457Z,92.80
2019-02-19T08:30:22.533Z,92.80
2019-02-19T08:32:51.643Z,92.70
2019-02-19T08:35:20.724Z,92.70
2019-02-19T08:37:49.855Z,92.70
2019-02-19T08:40:18.967Z,92.70
2019-02-19T08:42:48.027Z,92.70
2019-02-19T08:45:17.129Z,92.60
2019-02-19T08:47:46.185Z,92.60
2019-02-19T08:50:15.247Z,92.70
2019-02-19T08:52:44.326Z,92.70
2019-02-19T08:55:13.439Z,92.60
2019-02-19T08:57:42.517Z,92.60
2019-02-19T09:00:11.886Z,92.60
2019-02-19T09:02:40.929Z,92.60
2019-02-19T09:05:10.063Z,92.70
2019-02-19T09:07:39.170Z,92.70
2019-02-19T09:10:09.295Z,92.80
2019-02-19T09:12:38.425Z,92.70
2019-02-19T09:15:11.025Z,92.70
2019-02-19T09:17:39.754Z,92.60
2019-02-19T09:20:08.965Z,92.60
2019-02-19T09:22:38.026Z,92.60
2019-02-19T09:25:07.315Z,92.50
2019-02-19T09:27:36.435Z,92.20
2019-02-19T09:30:06.679Z,92.60
2019-02-19T09:32:35.750Z,92.90
2019-02-19T09:35:05.532Z,93.10
2019-02-19T09:37:34.606Z,93.10
2019-02-19T09:40:04.297Z,93.00
2019-02-19T09:42:33.347Z,93.00
2019-02-19T09:45:02.437Z,93.10
2019-02-19T09:47:31.537Z,93.10
2019-02-19T09:50:00.622Z,93.10
2019-02-19T09:52:29.897Z,93.10
2019-02-19T09:54:58.942Z,93.10
2019-02-19T09:57:27.985Z,93.00
2019-02-19T09:59:57.070Z,93.10
2019-02-19T10:02:26.148Z,93.10
2019-02-19T10:04:55.239Z,93.20
2019-02-19T10:07:24.305Z,93.10
2019-02-19T10:09:53.403Z,93.20
2019-02-19T10:12:22.512Z,93.40
2019-02-19T10:14:51.574Z,93.30
2019-02-19T10:17:20.703Z,93.40
2019-02-19T10:19:49.809Z,93.90
2019-02-19T10:22:19.235Z,93.80
2019-02-19T10:24:48.402Z,94.00
2019-02-19T10:27:17.442Z,94.10
2019-02-19T10:29:46.509Z,94.20
2019-02-19T10:32:15.562Z,94.20
2019-02-19T10:34:44.642Z,94.20
2019-02-19T10:37:13.688Z,94.40
2019-02-19T10:39:42.813Z,94.50
2019-02-19T10:42:11.871Z,94.70
2019-02-19T10:44:40.929Z,94.90
2019-02-19T10:47:10.007Z,94.90
2019-02-19T10:49:39.086Z,94.90
2019-02-19T10:52:08.217Z,94.90
2019-02-19T10:54:37.305Z,94.90
2019-02-19T10:57:06.370Z,94.90
2019-02-19T10:59:35.457Z,94.90
2019-02-19T11:02:04.579Z,94.80
2019-02-19T11:04:33.659Z,94.70
2019-02-19T11:07:02.703Z,94.50
2019-02-19T11:09:31.783Z,94.50
2019-02-19T11:12:01.325Z,94.50
2019-02-19T11:14:30.398Z,94.40
2019-02-19T11:16:59.508Z,94.40
2019-02-19T11:19:28.554Z,94.30
2019-02-19T11:21:57.918Z,94.20
2019-02-19T11:24:27.057Z,94.30
2019-02-19T11:26:56.174Z,94.50
2019-02-19T11:29:25.265Z,94.50
2019-02-19T11:31:54.598Z,94.30
2019-02-19T11:34:24.129Z,94.10
2019-02-19T11:36:53.173Z,94.10
2019-02-19T11:39:22.670Z,94.00
2019-02-19T11:41:51.790Z,94.00
2019-02-19T11:44:20.866Z,94.40
2019-02-19T11:46:49.914Z,94.00
2019-02-19T11:49:19.000Z,94.00
2019-02-19T11:51:48.173Z,93.70
2019-02-19T11:54:17.281Z,93.90
2019-02-19T11:56:46.346Z,94.00
2019-02-19T11:59:15.788Z,94.30
2019-02-19T12:01:44.905Z,94.50
2019-02-19T12:04:13.966Z,94.40
2019-02-19T12:06:43.035Z,94.50
2019-02-19T12:09:12.118Z,94.20
2019-02-19T12:11:41.209Z,94.10
2019-02-19T12:14:10.328Z,94.00
2019-02-19T12:16:39.411Z,94.00
2019-02-19T12:19:08.492Z,93.90
2019-02-19T12:21:37.568Z,94.10
2019-02-19T12:24:06.639Z,94.00
2019-02-19T12:26:35.650Z,93.80
2019-02-19T12:29:04.710Z,94.00
2019-02-19T12:31:33.802Z,93.90
2019-02-19T12:34:02.853Z,93.90
2019-02-19T12:36:31.934Z,94.00
2019-02-19T12:39:01.005Z,94.00
2019-02-19T12:41:30.036Z,93.80
2019-02-19T12:43:59.119Z,93.60
2019-02-19T12:46:28.182Z,93.40
2019-02-19T12:48:57.309Z,93.30
2019-02-19T12:51:26.865Z,93.40
2019-02-19T12:53:56.274Z,93.10
2019-02-19T12:56:25.467Z,92.90
2019-02-19T12:58:54.618Z,93.00
2019-02-19T13:01:23.737Z,92.90
2019-02-19T13:03:52.843Z,93.00
2019-02-19T13:06:21.919Z,93.00
2019-02-19T13:08:51.061Z,92.90
2019-02-19T13:11:20.187Z,92.80
2019-02-19T13:13:49.217Z,92.60
2019-02-19T13:16:18.306Z,92.70
2019-02-19T13:18:47.465Z,92.70
2019-02-19T13:21:16.514Z,92.70
2019-02-19T13:23:45.697Z,92.80
2019-02-19T13:26:14.744Z,92.80
2019-02-19T13:28:43.806Z,93.00
2019-02-19T13:31:12.877Z,93.20
2019-02-19T13:33:45.427Z,93.20
2019-02-19T13:36:14.531Z,93.40
2019-02-19T13:38:43.614Z,93.10
2019-02-19T13:41:12.723Z,93.20
2019-02-19T13:43:41.818Z,93.00
2019-02-19T13:46:10.878Z,93.10
2019-02-19T13:48:40.126Z,93.00
2019-02-19T13:51:09.181Z,92.80
2019-02-19T13:53:44.985Z,92.60
2019-02-19T13:56:14.270Z,92.40
2019-02-19T13:58:43.440Z,92.20
2019-02-19T14:01:12.582Z,92.20
2019-02-19T14:03:43.029Z,92.20
2019-02-19T14:06:11.994Z,92.00
2019-02-19T14:08:41.078Z,92.00
2019-02-19T14:11:10.137Z,91.80
2019-02-19T14:13:42.474Z,91.60
2019-02-19T14:16:16.211Z,91.30
2019-02-19T14:18:58.513Z,91.00
2019-02-19T14:21:45.617Z,90.70
2019-02-19T14:24:26.769Z,90.60
2019-02-19T14:27:18.045Z,90.40
2019-02-19T14:30:06.421Z,90.30
2019-02-19T14:32:57.337Z,90.50
2019-02-19T14:36:00.737Z,90.40
2019-02-19T14:38:47.630Z,90.50
2019-02-19T14:41:27.203Z,90.60
2019-02-19T14:44:21.224Z,90.80
2019-02-19T14:47:12.371Z,90.80
2019-02-19T14:49:59.905Z,90.90
2019-02-19T14:52:42.817Z,90.80
2019-02-19T14:55:40.017Z,90.80
2019-02-19T14:58:26.481Z,90.80
2019-02-19T15:01:30.084Z,90.70
2019-02-19T15:04:25.692Z,90.80
2019-02-19T15:07:02.863Z,90.90
2019-02-19T15:09:55.122Z,91.00
2019-02-19T15:12:46.004Z,91.10
2019-02-19T15:15:31.753Z,90.70
2019-02-19T15:18:18.638Z,90.80
2019-02-19T15:21:07.639Z,90.60
2019-02-19T15:23:48.957Z,90.80
2019-02-19T15:26:36.243Z,90.80
2019-02-19T15:29:23.343Z,90.90
2019-02-19T15:32:14.504Z,91.30
2019-02-19T15:35:11.600Z,91.00
2019-02-19T15:38:12.023Z,91.00
2019-02-19T15:41:06.152Z,91.10
2019-02-19T15:43:57.463Z,91.00
2019-02-19T15:46:50.842Z,90.60
2019-02-19T15:49:47.608Z,90.40
2019-02-19T15:52:25.702Z,90.30
2019-02-19T15:55:05.954Z,90.30
2019-02-19T15:58:04.840Z,90.00
2019-02-19T16:00:42.898Z,90.10
2019-02-19T16:03:20.762Z,89.80
2019-02-19T16:06:12.088Z,89.70
2019-02-19T16:09:09.984Z,89.40
2019-02-19T16:11:52.951Z,89.80
2019-02-19T16:14:39.669Z,89.90
2019-02-19T16:17:20.906Z,90.00
2019-02-19T16:20:15.026Z,89.80
2019-02-19T16:23:03.121Z,89.80
2019-02-19T16:25:49.940Z,89.50
2019-02-19T16:28:47.289Z,89.50
2019-02-19T16:31:42.894Z,89.30
2019-02-19T16:34:18.301Z,89.10
2019-02-19T16:36:52.093Z,89.00
2019-02-19T16:39:42.503Z,89.00
2019-02-19T16:42:29.458Z,88.80
2019-02-19T16:45:09.657Z,88.80
2019-02-19T16:47:57.790Z,88.70
2019-02-19T16:50:48.856Z,88.80
2019-02-19T16:53:39.946Z,88.60
2019-02-19T16:56:37.373Z,89.10
2019-02-19T16:59:21.466Z,88.60
2019-02-19T17:01:57.670Z,88.10
2019-02-19T17:04:45.792Z,88.00
2019-02-19T17:07:20.925Z,88.20
2019-02-19T17:09:55.145Z,88.40
2019-02-19T17:12:45.800Z,88.20
2019-02-19T17:15:23.069Z,87.90
2019-02-19T17:18:06.993Z,87.90
2019-02-19T17:20:54.383Z,88.00
2019-02-19T17:23:45.526Z,88.00
2019-02-19T17:26:22.657Z,88.20
2019-02-19T17:29:14.013Z,88.30
2019-02-19T17:31:51.739Z,88.10
2019-02-19T17:34:34.850Z,88.20
2019-02-19T17:37:31.964Z,88.20
2019-02-19T17:40:26.126Z,88.40
2019-02-19T17:43:00.075Z,88.70
2019-02-19T17:45:53.417Z,88.70
2019-02-19T17:48:51.051Z,89.30
2019-02-19T17:51:37.770Z,90.40
2019-02-19T17:54:29.980Z,90.60
2019-02-19T17:57:19.941Z,90.80
2019-02-19T18:00:17.101Z,90.70
2019-02-19T18:03:17.495Z,90.60
2019-02-19T18:06:04.310Z,90.40
2019-02-19T18:08:39.668Z,90.40
2019-02-19T18:11:33.826Z,90.60
2019-02-19T18:14:20.898Z,90.40
2019-02-19T18:16:58.106Z,90.30
2019-02-19T18:19:27.158Z,90.20
2019-02-19T18:21:56.374Z,90.30
2019-02-19T18:24:25.433Z,90.40
2019-02-19T18:26:54.837Z,90.30
2019-02-19T18:29:23.814Z,90.30
2019-02-19T18:31:52.971Z,90.40
2019-02-19T18:34:22.001Z,90.40
2019-02-19T18:36:51.178Z,90.50
2019-02-19T18:39:20.615Z,90.50
2019-02-19T18:41:49.695Z,90.50
2019-02-19T18:44:18.793Z,90.60
2019-02-19T18:46:48.020Z,90.30
2019-02-19T18:49:17.159Z,90.50
2019-02-19T18:51:46.206Z,90.40
2019-02-19T18:54:15.358Z,90.50
2019-02-19T18:56:44.506Z,90.80
2019-02-19T18:59:13.739Z,90.40
2019-02-19T19:01:42.837Z,90.40
2019-02-19T19:04:11.942Z,90.50
2019-02-19T19:06:41.102Z,90.50
2019-02-19T19:09:10.287Z,90.50
2019-02-19T19:11:39.419Z,90.60
2019-02-19T19:14:08.810Z,90.20
2019-02-19T19:16:38.048Z,90.50
2019-02-19T19:19:07.299Z,90.60
2019-02-19T19:21:36.366Z,90.50
2019-02-19T19:24:05.497Z,90.70
2019-02-19T19:26:34.565Z,91.30
2019-02-19T19:29:03.609Z,92.20
2019-02-19T19:31:33.958Z,94.10
2019-02-19T19:34:03.391Z,95.60
2019-02-19T19:36:32.456Z,96.30
2019-02-19T19:39:01.503Z,96.90
2019-02-19T19:41:30.542Z,97.90
2019-02-19T19:43:59.536Z,98.40
2019-02-19T19:46:28.567Z,98.50
2019-02-19T19:48:57.629Z,98.80
2019-02-19T19:51:26.710Z,98.80
2019-02-19T19:53:55.678Z,99.10
2019-02-19T19:56:24.750Z,99.20
2019-02-19T19:58:54.492Z,99.50
2019-02-19T20:01:23.554Z,99.60
2019-02-19T20:03:52.593Z,99.80
2019-02-19T20:06:21.617Z,99.90
2019-02-19T20:08:50.789Z,99.90
2019-02-19T20:11:19.968Z,99.90
2019-02-19T20:13:49.075Z,99.90
2019-02-19T20:16:18.149Z,99.90
2019-02-19T20:18:47.216Z,99.90
2019-02-19T20:21:16.315Z,99.90
2019-02-19T20:23:45.316Z,99.90
2019-02-19T20:26:14.582Z,99.90
2019-02-19T20:28:43.721Z,99.90
2019-02-19T20:31:12.859Z,99.90
2019-02-19T20:33:41.913Z,99.90
2019-02-19T20:36:11.030Z,99.90
2019-02-19T20:38:40.143Z,99.90
2019-02-19T20:41:10.070Z,99.90
2019-02-19T20:43:39.220Z,99.90
2019-02-19T20:46:08.334Z,99.90
2019-02-19T20:48:37.401Z,99.90
2019-02-19T20:51:06.410Z,99.90
2019-02-19T20:53:35.458Z,99.90
2019-02-19T20:56:04.872Z,99.90
2019-02-19T20:58:34.229Z,99.90
2019-02-19T21:01:03.458Z,99.90
2019-02-19T21:03:32.519Z,99.90
2019-02-19T21:06:01.593Z,99.90
2019-02-19T21:08:30.777Z,99.90
2019-02-19T21:10:59.876Z,99.90
2019-02-19T21:13:28.918Z,99.90
2019-02-19T21:15:58.196Z,99.90
2019-02-19T21:18:27.882Z,99.90
2019-02-19T21:20:56.934Z,99.90
2019-02-19T21:23:26.049Z,99.90
2019-02-19T21:25:55.117Z,99.90
2019-02-19T21:28:24.178Z,99.90
2019-02-19T21:30:53.270Z,99.90
2019-02-19T21:33:22.602Z,99.90
2019-02-19T21:35:52.761Z,99.90
2019-02-19T21:38:21.946Z,99.90
2019-02-19T21:40:51.033Z,99.90
2019-02-19T21:43:39.189Z,99.90
2019-02-19T21:46:08.318Z,99.90
2019-02-19T21:48:37.410Z,99.90
2019-02-19T21:51:06.449Z,99.90
2019-02-19T21:53:35.616Z,99.90
2019-02-19T21:56:04.653Z,99.90
2019-02-19T21:58:33.693Z,99.90
2019-02-19T22:01:02.827Z,99.90
2019-02-19T22:03:31.861Z,99.90
2019-02-19T22:06:00.902Z,99.90
2019-02-19T22:08:29.954Z,99.90
2019-02-19T22:10:59.002Z,99.90
2019-02-19T22:13:28.000Z,99.90
2019-02-19T22:15:57.341Z,99.90
2019-02-19T22:18:26.297Z,99.90
2019-02-19T22:21:06.750Z,99.90
2019-02-19T22:23:35.837Z,99.90
2019-02-19T22:26:04.874Z,99.90
2019-02-19T22:28:34.103Z,99.90
2019-02-19T22:31:03.206Z,99.90
2019-02-19T22:33:34.229Z,99.90
2019-02-19T22:36:02.885Z,99.90
2019-02-19T22:38:31.954Z,99.90
2019-02-19T22:41:01.003Z,99.90
2019-02-19T22:43:30.049Z,99.90
2019-02-19T22:45:59.077Z,99.90
2019-02-19T22:48:28.146Z,99.90
2019-02-19T22:50:57.283Z,99.90
2019-02-19T22:53:54.422Z,99.90
2019-02-19T22:56:29.405Z,99.90
2019-02-19T22:58:58.480Z,99.90
2019-02-19T23:01:37.552Z,99.90
2019-02-19T23:04:06.681Z,99.90
2019-02-19T23:06:35.746Z,99.90
2019-02-19T23:09:05.918Z,99.90
2019-02-19T23:11:35.017Z,99.90
2019-02-19T23:14:04.090Z,99.90
2019-02-19T23:16:33.129Z,99.90
2019-02-19T23:19:02.178Z,99.90
2019-02-19T23:21:31.248Z,99.90
2019-02-19T23:24:00.309Z,99.90
2019-02-19T23:26:29.392Z,99.90
2019-02-19T23:28:58.501Z,99.90
2019-02-19T23:31:27.541Z,99.90
2019-02-19T23:33:56.645Z,99.90
2019-02-19T23:36:36.029Z,99.90
2019-02-19T23:39:06.745Z,99.90
2019-02-19T23:41:35.773Z,99.90
2019-02-19T23:44:04.821Z,99.90
2019-02-19T23:46:33.869Z,99.90
2019-02-19T23:49:02.919Z,99.90
2019-02-19T23:51:31.974Z,99.90
2019-02-19T23:54:01.098Z,99.90
2019-02-19T23:56:30.138Z,99.90
2019-02-19T23:58:59.192Z,99.90
